Vladivostok International Airport
UHWW : now visible

Airfield :











YOU CAN JOIN US ON...

 
LOGIN :

Register | Disclaimer

   EN    FR    IT 

 









Legend :    VFR   Marginal VFR   IFR   Intensive IFR   Very Intensive IFR
Visi :
Ceiling :
>= 8 km
>= 3000ft
5 to 8 km
1000 to 3000 ft
1500m to 5 km
500 to 1000 ft
800 to 1500m
200 to 500 ft
< 800m
< 200 ft
Symbols :   Thunderstorms  Fog  Heavy snow  Heavy precipitations  Wind > 20 kt







- Airport Elevation : 46 ft
- IATA code : VVO


UHWW - Vladivostok International

CURRENT METAR :
  • 211830Z 00000MPS 9999 NSC M01/M07 Q1016 R25L/0///70 NOSIG RMK QFE761

EXPIRED METARs :
  • 211800Z 00000MPS 9999 NSC M01/M06 Q1016 R25L/0///70 NOSIG RMK QFE761
  • 211730Z 00000MPS 9999 NSC M01/M07 Q1016 R25L/0///70 NOSIG RMK QFE761
  • 211700Z 00000MPS 9999 NSC 01/M07 Q1015 R25L/0///70 NOSIG RMK QFE760
  • 211630Z VRB01MPS 9999 NSC 01/M07 Q1015 R07R/0///70 NOSIG RMK QFE760
  • 211600Z VRB01MPS 9999 NSC 00/M07 Q1015 R25L/0///70 NOSIG RMK QFE760

TAF TAF UHWW
Valid from the 21 at 18:00 until the 22 at 18:00 UTC


211700Z 2118/2218 36003MPS 3100 BR BKN011
FM220000 20003MPS 9999 SCT030
UHWW FIR / Asia



MET'MAP, your aeronautical weather chart ! - Copyright ORBIFLY December 2007 - Disclaimer

ORBIFLY MET'MAP TEAM :

Programming & Development : Alexandra Zaïnal
Concept & Development : Baudouin d'Aumeries
Co-Development & Prog : Marc-Olivier Méhu
Technical & hardware support : Manuel Goepfert

Contact : metmap@orbifly.com




SOURCES & CREDITS :

   NOAA       Earth
Advisory